Archival Weather

Chicago O'Hare International

Chicago, Illinois (KORD)

Report from: Sunday, March 6, 2022 1:40 PM CST
Current time: Saturday, February 4, 2023 10:30 PM CST

Current weather
Weather history
Weather forecast

Temperature3.9°C (39.0°F)
Wind chill-0.6°C (31.0°F)
Dew point-2.8°C (27.0°F)
Winds 12 kts (6.2 m/s, 13.8 mph) West (280°)
Wind gusts 21 kts (10.8 m/s, 24.2 mph)
Visibility10 mi. (16.1 km)
Clouds Few clouds 2,400 ft. (732 m)
Ceiling: Broken clouds 25,000 ft. (7,620 m)
Altimeter30.01 in.Hg (1016 mB)
Relative humidity62 %
Density altitude-1,369 ft. (-417 m)
Remarks Corrected report
System requires maintenance
Automated weather observing station with precipitation discriminator
Flight conditions Visual Meteorological Conditions
Raw dataKORD 061940Z COR 28012G21KT 10SM FEW024 BKN250 04/M03 A3001 RMK AO2 T00391028 $
An unhandled exception has occurred. See browser dev tools for details. Reload 🗙